Saratoga, California
Current Conditions -  °F | °C
As of 12:53 PM on Monday 24 Nov 2014 (Local Time) from KSJC Reporting Station
Scattered Clouds Scattered Clouds  
Wind Chill: 63°   Ceiling: Unl
Heat Index: 63°   Visibility: 10mi
Dew Point: 35°   Wind: 6mph
Humidity: 35%   Direction: 300°WNW
Pressure: 30.36"   Gusts: NA
Location:  37.27°N, 122.01°W
Report Text: KSJC 242053Z 30005KT 10SM FEW100 SCT140 17/02 A3036 RMK AO2 SLP279 T01720017 57018
Loading
Personal Weather Stations






























Interactive Weather Map New forecast layout! Learn more

10-Day Weather Forecast

Advertisements
Track Severe Weather on mobile